Time;durP1;ratioP1;P1;durP2;ratioP2;P2;SDS_P1;SDS_P2;PMS_P1;PMS_P2;Temp;Humidity;BMP_temperature;BMP_pressure;BME280_temperature;BME280_humidity;BME280_pressure;Samples;Min_cycle;Max_cycle;Signal;HPM_P1;HPM_P2
2022/04/30 00:00:50;;;;;;;11.68;6.35;;;;;;;;;;4964312;28;20039;-70
2022/04/30 00:03:35;;;;;;;9.85;6.72;;;;;;;;;;4978850;28;20445;-61
2022/04/30 00:06:20;;;;;;;8.90;6.10;;;;;;;;;;4967472;28;20384;-61
2022/04/30 00:09:06;;;;;;;12.02;5.95;;;;;;;;;;4973906;28;20030;-61
2022/04/30 00:11:51;;;;;;;7.57;6.00;;;;;;;;;;4977017;28;20038;-61
2022/04/30 00:14:37;;;;;;;8.45;5.68;;;;;;;;;;4968074;28;20038;-61
2022/04/30 00:17:23;;;;;;;10.63;6.28;;;;;;;;;;4969411;28;20065;-65
2022/04/30 00:20:08;;;;;;;10.13;6.50;;;;;;;;;;4978937;28;20069;-75
2022/04/30 00:22:54;;;;;;;11.30;6.28;;;;;;;;;;4966854;28;20050;-75
2022/04/30 00:25:39;;;;;;;11.38;5.95;;;;;;;;;;4968018;28;20390;-75
2022/04/30 00:28:25;;;;;;;11.27;6.78;;;;;;;;;;4969658;28;20038;-76
2022/04/30 00:31:10;;;;;;;7.95;5.78;;;;;;;;;;4983731;28;20053;-76
2022/04/30 00:33:56;;;;;;;9.70;6.18;;;;;;;;;;4988998;28;20046;-75
2022/04/30 00:36:42;;;;;;;10.82;6.43;;;;;;;;;;4972135;28;20031;-65
2022/04/30 00:39:27;;;;;;;8.68;6.05;;;;;;;;;;4983501;28;20178;-68
2022/04/30 00:42:13;;;;;;;8.45;5.97;;;;;;;;;;4954523;28;20022;-69
2022/04/30 00:44:59;;;;;;;8.95;6.38;;;;;;;;;;4977820;28;20042;-69
2022/04/30 00:47:44;;;;;;;9.95;6.25;;;;;;;;;;4950162;28;20466;-69
2022/04/30 00:50:33;;;;;;;10.68;6.80;;;;;;;;;;4955751;28;20225;-68
2022/04/30 00:53:21;;;;;;;8.32;5.63;;;;;;;;;;4982713;28;20034;-70
2022/04/30 00:56:11;;;;;;;8.05;6.07;;;;;;;;;;4978642;28;20393;-70
2022/04/30 00:58:56;;;;;;;11.55;6.47;;;;;;;;;;4981810;28;20041;-68
2022/04/30 01:01:42;;;;;;;6.90;5.32;;;;;;;;;;4981911;28;20045;-68
2022/04/30 01:04:27;;;;;;;8.75;6.18;;;;;;;;;;4975002;28;20034;-69
2022/04/30 01:07:13;;;;;;;12.60;8.45;;;;;;;;;;4983992;28;20035;-72
2022/04/30 01:09:58;;;;;;;10.82;7.25;;;;;;;;;;4991460;28;20050;-71
2022/04/30 01:12:43;;;;;;;10.93;6.97;;;;;;;;;;4986806;28;20041;-74
2022/04/30 01:15:29;;;;;;;11.65;8.40;;;;;;;;;;4985958;28;20027;-64
2022/04/30 01:18:14;;;;;;;16.70;9.40;;;;;;;;;;4984943;28;20174;-64
2022/04/30 01:21:03;;;;;;;16.48;11.45;;;;;;;;;;4982681;28;20038;-66
2022/04/30 01:23:48;;;;;;;15.88;11.35;;;;;;;;;;4972878;28;20090;-64
2022/04/30 01:26:34;;;;;;;17.50;11.38;;;;;;;;;;4990189;28;20712;-65
2022/04/30 01:29:20;;;;;;;17.05;12.23;;;;;;;;;;4972976;28;20356;-63
2022/04/30 01:38:15;;;;;;;21.70;15.40;;;;;;;;;;4971114;28;20134;-76
2022/04/30 01:41:00;;;;;;;28.25;17.13;;;;;;;;;;4973042;28;20039;-76
2022/04/30 01:43:46;;;;;;;24.83;14.80;;;;;;;;;;4971271;28;20038;-76
2022/04/30 01:46:31;;;;;;;26.30;16.10;;;;;;;;;;4971951;28;20366;-75
2022/04/30 01:49:17;;;;;;;25.33;16.15;;;;;;;;;;4956811;28;20089;-60
2022/04/30 01:52:06;;;;;;;32.83;17.50;;;;;;;;;;4953353;29;20404;-69
2022/04/30 01:54:51;;;;;;;26.55;17.90;;;;;;;;;;4989576;28;20043;-70
2022/04/30 01:57:40;;;;;;;22.92;17.08;;;;;;;;;;4973070;28;20352;-70
2022/04/30 02:00:26;;;;;;;32.13;17.52;;;;;;;;;;4958963;28;20030;-69
2022/04/30 02:03:15;;;;;;;28.27;18.02;;;;;;;;;;4972491;28;20045;-71
2022/04/30 02:06:02;;;;;;;25.13;17.95;;;;;;;;;;4990863;28;20118;-70
2022/04/30 02:08:47;;;;;;;24.23;18.88;;;;;;;;;;4976537;28;20100;-65
2022/04/30 02:11:32;;;;;;;33.38;18.98;;;;;;;;;;4963529;28;20031;-70
2022/04/30 02:14:18;;;;;;;23.23;16.10;;;;;;;;;;4970590;28;20039;-71
2022/04/30 02:17:05;;;;;;;25.58;16.40;;;;;;;;;;4972205;28;20544;-71
2022/04/30 02:22:58;;;;;;;23.73;16.67;;;;;;;;;;4970065;28;20170;-71
2022/04/30 02:25:45;;;;;;;25.00;16.42;;;;;;;;;;4986125;28;20034;-65
2022/04/30 02:28:30;;;;;;;23.70;16.38;;;;;;;;;;4958331;28;20065;-71
2022/04/30 02:31:21;;;;;;;25.45;17.20;;;;;;;;;;4980473;28;20031;-71
2022/04/30 02:34:07;;;;;;;23.85;16.00;;;;;;;;;;4967326;28;20069;-71
2022/04/30 02:36:52;;;;;;;26.67;14.75;;;;;;;;;;4975218;28;20042;-70
2022/04/30 02:39:37;;;;;;;22.98;14.95;;;;;;;;;;4972858;28;20226;-70
2022/04/30 02:42:22;;;;;;;22.40;15.35;;;;;;;;;;4973658;28;20045;-71
2022/04/30 02:45:09;;;;;;;20.58;14.93;;;;;;;;;;4971028;28;20031;-65
2022/04/30 02:47:56;;;;;;;20.65;16.52;;;;;;;;;;4952191;29;20407;-61
2022/04/30 02:50:42;;;;;;;19.80;14.20;;;;;;;;;;4965632;28;20035;-62
2022/04/30 02:53:27;;;;;;;19.95;15.30;;;;;;;;;;4978403;28;20110;-61
2022/04/30 02:56:12;;;;;;;22.05;14.70;;;;;;;;;;4973684;28;20366;-59
2022/04/30 03:02:01;;;;;;;21.60;14.25;;;;;;;;;;4970559;28;20130;-61
2022/04/30 03:04:53;;;;;;;21.80;15.18;;;;;;;;;;4987933;28;20109;-64
2022/04/30 03:07:38;;;;;;;18.63;13.27;;;;;;;;;;4989064;28;20034;-70
2022/04/30 03:10:23;;;;;;;22.52;15.20;;;;;;;;;;4983470;28;20593;-72
2022/04/30 03:13:09;;;;;;;23.42;15.05;;;;;;;;;;4990312;28;20041;-70
2022/04/30 03:15:55;;;;;;;22.70;14.07;;;;;;;;;;4988480;28;20043;-71
2022/04/30 03:21:44;;;;;;;23.95;16.67;;;;;;;;;;4983161;28;20379;-72
2022/04/30 03:24:31;;;;;;;27.08;17.75;;;;;;;;;;4990092;28;20113;-62
2022/04/30 03:27:17;;;;;;;24.17;17.88;;;;;;;;;;4988749;28;20397;-62
2022/04/30 03:30:03;;;;;;;22.85;16.90;;;;;;;;;;4976813;28;20371;-63
2022/04/30 03:32:52;;;;;;;24.85;16.58;;;;;;;;;;4977982;28;20119;-62
2022/04/30 03:35:38;;;;;;;25.42;17.15;;;;;;;;;;4970124;28;20557;-62
2022/04/30 03:38:24;;;;;;;25.13;18.48;;;;;;;;;;4984700;28;20619;-63
2022/04/30 03:41:09;;;;;;;23.95;18.63;;;;;;;;;;4981461;28;20034;-70
2022/04/30 03:43:54;;;;;;;27.33;19.15;;;;;;;;;;4985728;28;20043;-61
2022/04/30 03:46:39;;;;;;;29.05;19.88;;;;;;;;;;4986116;28;20047;-61
2022/04/30 03:49:25;;;;;;;28.38;21.73;;;;;;;;;;4980408;28;20031;-64
2022/04/30 03:52:11;;;;;;;28.70;20.25;;;;;;;;;;4983773;28;20129;-61
2022/04/30 03:54:56;;;;;;;28.00;20.05;;;;;;;;;;4969935;28;20043;-61
2022/04/30 03:57:42;;;;;;;34.72;21.88;;;;;;;;;;4971743;28;20034;-59
2022/04/30 04:00:27;;;;;;;28.70;19.92;;;;;;;;;;4969889;28;20043;-67
2022/04/30 04:03:13;;;;;;;26.20;18.42;;;;;;;;;;4987667;28;20479;-70
2022/04/30 04:05:58;;;;;;;26.83;19.15;;;;;;;;;;4975618;28;20039;-69
2022/04/30 04:08:44;;;;;;;30.48;20.23;;;;;;;;;;4981641;28;20153;-68
2022/04/30 04:11:30;;;;;;;27.65;20.67;;;;;;;;;;4963948;28;20035;-70
2022/04/30 04:17:38;;;;;;;30.27;20.38;;;;;;;;;;4989105;28;20476;-63
2022/04/30 04:20:25;;;;;;;28.70;20.98;;;;;;;;;;4971451;28;20088;-65
2022/04/30 04:23:10;;;;;;;32.90;22.13;;;;;;;;;;4970043;28;20039;-65
2022/04/30 04:26:01;;;;;;;31.55;21.98;;;;;;;;;;4989171;28;20508;-66
2022/04/30 04:28:46;;;;;;;28.58;21.10;;;;;;;;;;4973892;28;20039;-64
2022/04/30 04:31:32;;;;;;;27.45;21.63;;;;;;;;;;4973681;28;20031;-65
2022/04/30 04:34:17;;;;;;;34.38;22.65;;;;;;;;;;4985579;28;20081;-70
2022/04/30 04:37:02;;;;;;;33.88;22.80;;;;;;;;;;4969625;28;20043;-70
2022/04/30 04:39:47;;;;;;;30.85;21.08;;;;;;;;;;4981693;28;20113;-71
2022/04/30 04:42:33;;;;;;;27.63;20.60;;;;;;;;;;4969222;28;20403;-71
2022/04/30 04:45:18;;;;;;;30.95;21.67;;;;;;;;;;4981739;28;20042;-72
2022/04/30 04:48:03;;;;;;;31.10;22.40;;;;;;;;;;4983039;28;20041;-71
2022/04/30 04:50:49;;;;;;;30.15;21.80;;;;;;;;;;4967706;28;20373;-71
2022/04/30 04:53:34;;;;;;;32.67;22.02;;;;;;;;;;4983008;28;20129;-68
2022/04/30 04:56:19;;;;;;;27.63;21.35;;;;;;;;;;4981731;28;20038;-63
2022/04/30 04:59:05;;;;;;;32.80;24.05;;;;;;;;;;4982959;28;20066;-62
2022/04/30 05:01:51;;;;;;;33.00;21.88;;;;;;;;;;4981607;28;20378;-62
2022/04/30 05:04:36;;;;;;;30.77;22.85;;;;;;;;;;4968961;28;20038;-62
2022/04/30 05:07:22;;;;;;;32.25;22.85;;;;;;;;;;4988114;28;20109;-60
2022/04/30 05:10:07;;;;;;;30.88;22.40;;;;;;;;;;5000559;28;20034;-64
2022/04/30 05:12:53;;;;;;;37.42;21.83;;;;;;;;;;4985002;28;20049;-68
2022/04/30 05:15:39;;;;;;;33.33;22.38;;;;;;;;;;4987409;28;20031;-61
2022/04/30 05:18:24;;;;;;;38.38;22.42;;;;;;;;;;4949815;29;20467;-61
2022/04/30 05:21:09;;;;;;;31.80;21.85;;;;;;;;;;4962710;28;20026;-62
2022/04/30 05:23:54;;;;;;;30.80;22.23;;;;;;;;;;4981950;28;20210;-63
2022/04/30 05:26:40;;;;;;;28.42;20.95;;;;;;;;;;4974002;28;20038;-62
2022/04/30 05:29:25;;;;;;;28.17;20.80;;;;;;;;;;4969255;28;20051;-62
2022/04/30 05:32:10;;;;;;;27.08;21.52;;;;;;;;;;4987314;28;20034;-72
2022/04/30 05:34:55;;;;;;;33.25;23.17;;;;;;;;;;4968224;28;20497;-70
2022/04/30 05:37:41;;;;;;;27.88;21.67;;;;;;;;;;4976951;28;20045;-70
2022/04/30 05:40:26;;;;;;;29.88;22.65;;;;;;;;;;4977738;28;20046;-71
2022/04/30 05:43:11;;;;;;;31.13;22.98;;;;;;;;;;4986296;28;20354;-70
2022/04/30 05:45:56;;;;;;;28.83;22.08;;;;;;;;;;4972474;28;20441;-69
2022/04/30 05:48:41;;;;;;;32.42;23.10;;;;;;;;;;4987049;28;20046;-77
2022/04/30 05:51:27;;;;;;;30.20;22.58;;;;;;;;;;4972061;28;20247;-76
2022/04/30 05:54:12;;;;;;;34.15;23.33;;;;;;;;;;4971494;28;20068;-75
2022/04/30 05:56:57;;;;;;;28.00;21.42;;;;;;;;;;4971697;28;20042;-75
2022/04/30 05:59:42;;;;;;;29.25;21.98;;;;;;;;;;4981527;28;20047;-75
2022/04/30 06:02:28;;;;;;;29.15;22.23;;;;;;;;;;4956995;28;20065;-75
2022/04/30 06:05:13;;;;;;;30.27;23.33;;;;;;;;;;4983829;28;20026;-76
2022/04/30 06:07:59;;;;;;;33.53;24.85;;;;;;;;;;4977134;28;20373;-69
2022/04/30 06:10:44;;;;;;;31.65;21.30;;;;;;;;;;4957104;28;20043;-70
2022/04/30 06:13:29;;;;;;;27.25;21.67;;;;;;;;;;4977694;28;20033;-71
2022/04/30 06:16:15;;;;;;;32.25;22.63;;;;;;;;;;4991664;28;20042;-73
2022/04/30 06:19:01;;;;;;;32.90;23.30;;;;;;;;;;4986080;28;20153;-70
2022/04/30 06:21:48;;;;;;;29.27;20.85;;;;;;;;;;4989190;28;20038;-71
2022/04/30 06:24:34;;;;;;;24.48;20.35;;;;;;;;;;4983398;28;20030;-70
2022/04/30 06:27:19;;;;;;;28.25;21.15;;;;;;;;;;5004868;28;20049;-75
2022/04/30 06:30:06;;;;;;;30.00;21.63;;;;;;;;;;4975900;28;20481;-71
2022/04/30 06:32:51;;;;;;;29.73;20.70;;;;;;;;;;4971051;28;20058;-70
2022/04/30 06:35:37;;;;;;;27.67;20.95;;;;;;;;;;4975682;28;20491;-71
2022/04/30 06:38:23;;;;;;;32.28;19.52;;;;;;;;;;4971690;28;20050;-70
2022/04/30 06:41:08;;;;;;;27.95;20.58;;;;;;;;;;4971832;28;20038;-70
2022/04/30 06:43:53;;;;;;;26.77;19.40;;;;;;;;;;4971379;28;20097;-62
2022/04/30 06:46:39;;;;;;;25.40;19.88;;;;;;;;;;4979364;28;20041;-62
2022/04/30 06:49:24;;;;;;;25.13;18.40;;;;;;;;;;4986152;28;20250;-62
2022/04/30 06:52:09;;;;;;;23.60;18.98;;;;;;;;;;4985450;28;20133;-64
2022/04/30 06:57:59;;;;;;;24.85;21.45;;;;;;;;;;4978175;28;20039;-63
2022/04/30 07:03:41;;;;;;;24.15;19.08;;;;;;;;;;4975339;28;20042;-60
2022/04/30 07:06:27;;;;;;;26.38;20.52;;;;;;;;;;4977326;28;20051;-64
2022/04/30 07:09:13;;;;;;;24.08;18.88;;;;;;;;;;4957688;28;20273;-62
2022/04/30 07:11:59;;;;;;;25.40;20.45;;;;;;;;;;4973566;28;20066;-66
2022/04/30 07:14:45;;;;;;;22.35;18.38;;;;;;;;;;4957049;28;20030;-67
2022/04/30 07:17:30;;;;;;;26.15;17.98;;;;;;;;;;4978337;28;20039;-64
2022/04/30 07:20:15;;;;;;;25.58;18.40;;;;;;;;;;4975000;28;20050;-64
2022/04/30 07:23:00;;;;;;;23.58;17.55;;;;;;;;;;4962355;28;20240;-69
2022/04/30 07:25:46;;;;;;;22.85;17.73;;;;;;;;;;4972136;28;20513;-70
2022/04/30 07:28:35;;;;;;;25.73;18.75;;;;;;;;;;4989547;28;20046;-71
2022/04/30 07:31:20;;;;;;;22.45;17.58;;;;;;;;;;4983607;28;20100;-69
2022/04/30 07:34:05;;;;;;;22.42;17.75;;;;;;;;;;4969762;28;20047;-71
2022/04/30 07:36:50;;;;;;;20.45;16.05;;;;;;;;;;4977530;28;20050;-72
2022/04/30 07:39:36;;;;;;;24.70;17.73;;;;;;;;;;4990064;28;20034;-69
2022/04/30 07:42:21;;;;;;;23.65;18.65;;;;;;;;;;4982938;28;20039;-62
2022/04/30 07:45:06;;;;;;;23.00;17.50;;;;;;;;;;4970122;28;20043;-60
2022/04/30 07:47:54;;;;;;;21.90;16.33;;;;;;;;;;4982166;28;20030;-61
2022/04/30 07:50:43;;;;;;;23.73;17.20;;;;;;;;;;4983496;28;20467;-62
2022/04/30 07:53:29;;;;;;;19.30;16.90;;;;;;;;;;4971284;28;20541;-61
2022/04/30 07:56:15;;;;;;;21.83;16.40;;;;;;;;;;4970334;28;20054;-63
2022/04/30 07:59:00;;;;;;;23.33;17.45;;;;;;;;;;4984066;28;20125;-79
2022/04/30 08:01:45;;;;;;;21.58;15.05;;;;;;;;;;4966922;28;20030;-75
2022/04/30 08:04:31;;;;;;;21.95;16.42;;;;;;;;;;4969811;28;20462;-73
2022/04/30 08:07:16;;;;;;;18.77;15.43;;;;;;;;;;4971150;28;20039;-73
2022/04/30 08:10:01;;;;;;;19.45;14.85;;;;;;;;;;4989336;28;20477;-73
2022/04/30 08:12:46;;;;;;;19.48;15.57;;;;;;;;;;4980627;28;20061;-73
2022/04/30 08:15:32;;;;;;;19.10;13.63;;;;;;;;;;4976825;28;20512;-73
2022/04/30 08:18:18;;;;;;;16.95;13.25;;;;;;;;;;4982066;28;20089;-70
2022/04/30 08:21:04;;;;;;;15.77;13.02;;;;;;;;;;4952181;28;20047;-69
2022/04/30 08:23:49;;;;;;;20.40;14.73;;;;;;;;;;4978474;28;20066;-70
2022/04/30 08:26:35;;;;;;;15.38;12.48;;;;;;;;;;4980318;28;20077;-70
2022/04/30 08:29:21;;;;;;;15.95;11.70;;;;;;;;;;4969697;28;20057;-68
2022/04/30 08:32:06;;;;;;;15.40;11.80;;;;;;;;;;4972858;28;20045;-69
2022/04/30 08:34:51;;;;;;;16.23;12.15;;;;;;;;;;4977998;28;20043;-65
2022/04/30 08:37:37;;;;;;;15.68;12.30;;;;;;;;;;4969728;28;20047;-63
2022/04/30 08:40:23;;;;;;;14.98;12.32;;;;;;;;;;4982192;28;20374;-63
2022/04/30 08:43:09;;;;;;;20.10;12.77;;;;;;;;;;4969327;28;20058;-62
2022/04/30 08:45:54;;;;;;;18.08;13.32;;;;;;;;;;4969670;28;20070;-62
2022/04/30 08:48:40;;;;;;;17.05;13.10;;;;;;;;;;4955369;28;20052;-62
2022/04/30 08:51:26;;;;;;;19.52;13.10;;;;;;;;;;4969425;28;20066;-62
2022/04/30 08:54:11;;;;;;;15.60;13.38;;;;;;;;;;4968622;28;20031;-71
2022/04/30 08:56:56;;;;;;;16.67;12.68;;;;;;;;;;4984593;28;20034;-60
2022/04/30 08:59:42;;;;;;;16.45;12.27;;;;;;;;;;4974019;28;20038;-63
2022/04/30 09:02:27;;;;;;;16.30;12.88;;;;;;;;;;4976983;28;20041;-63
2022/04/30 09:05:13;;;;;;;16.35;12.60;;;;;;;;;;4975687;28;20465;-62
2022/04/30 09:07:59;;;;;;;17.95;13.18;;;;;;;;;;4988995;28;20033;-61
2022/04/30 09:10:45;;;;;;;17.02;12.45;;;;;;;;;;4978921;28;20038;-70
2022/04/30 09:13:32;;;;;;;15.20;12.48;;;;;;;;;;4952198;28;20401;-71
2022/04/30 09:16:21;;;;;;;14.27;11.73;;;;;;;;;;4981494;28;20446;-68
2022/04/30 09:19:06;;;;;;;14.52;11.60;;;;;;;;;;4986926;28;20088;-69
2022/04/30 09:21:51;;;;;;;16.70;13.32;;;;;;;;;;4984665;28;20478;-69
2022/04/30 09:24:57;;;;;;;16.10;12.48;;;;;;;;;;4961560;28;20106;-69
2022/04/30 09:27:45;;;;;;;16.20;11.75;;;;;;;;;;4965341;28;20070;-68
2022/04/30 09:30:32;;;;;;;14.50;12.23;;;;;;;;;;4963397;28;20054;-69
2022/04/30 09:33:19;;;;;;;16.52;12.70;;;;;;;;;;4986020;28;20031;-75
2022/04/30 09:39:13;;;;;;;13.90;10.73;;;;;;;;;;4981305;28;20050;-77
2022/04/30 09:42:02;;;;;;;13.55;11.07;;;;;;;;;;4983233;28;20047;-77
2022/04/30 09:44:47;;;;;;;14.55;10.18;;;;;;;;;;4972656;28;20282;-75
2022/04/30 09:47:33;;;;;;;13.48;10.02;;;;;;;;;;4962398;28;20462;-72
2022/04/30 09:56:27;;;;;;;10.68;8.50;;;;;;;;;;4990015;28;20038;-63
2022/04/30 09:59:14;;;;;;;12.07;7.97;;;;;;;;;;4959461;28;20034;-61
2022/04/30 10:02:00;;;;;;;9.52;7.50;;;;;;;;;;4987770;28;20525;-60
2022/04/30 10:04:46;;;;;;;11.95;8.88;;;;;;;;;;4973997;28;20038;-60
2022/04/30 10:07:33;;;;;;;11.55;8.82;;;;;;;;;;4977887;28;20027;-65
2022/04/30 10:10:21;;;;;;;10.68;8.82;;;;;;;;;;4972340;28;20037;-70
2022/04/30 10:13:20;;;;;;;10.70;8.23;;;;;;;;;;4980887;28;20050;-71
2022/04/30 10:16:06;;;;;;;12.40;8.82;;;;;;;;;;4991397;28;20404;-71
2022/04/30 10:19:10;;;;;;;10.70;8.45;;;;;;;;;;4985092;28;20397;-71
2022/04/30 10:22:09;;;;;;;11.15;8.73;;;;;;;;;;4985197;28;20079;-71
2022/04/30 10:24:56;;;;;;;10.85;9.18;;;;;;;;;;4984679;28;20038;-60
2022/04/30 10:27:43;;;;;;;14.40;10.18;;;;;;;;;;4972194;28;20034;-77
2022/04/30 10:30:28;;;;;;;13.27;9.38;;;;;;;;;;4977243;28;20487;-76
2022/04/30 10:33:13;;;;;;;10.93;8.93;;;;;;;;;;4978899;28;20427;-76
2022/04/30 10:36:09;;;;;;;12.30;9.50;;;;;;;;;;4993457;28;20093;-77
2022/04/30 10:38:59;;;;;;;14.38;10.15;;;;;;;;;;4957756;28;20077;-76
2022/04/30 10:41:48;;;;;;;11.70;9.35;;;;;;;;;;4985391;28;20042;-76
2022/04/30 10:44:34;;;;;;;11.68;8.65;;;;;;;;;;4983933;28;20038;-75
2022/04/30 10:47:20;;;;;;;12.00;9.35;;;;;;;;;;4984924;28;20035;-70
2022/04/30 10:50:05;;;;;;;13.27;9.80;;;;;;;;;;4984431;28;20117;-71
2022/04/30 10:52:51;;;;;;;11.77;8.25;;;;;;;;;;4979096;28;20038;-70
2022/04/30 10:55:37;;;;;;;13.43;8.57;;;;;;;;;;4956452;28;20105;-71
2022/04/30 10:58:25;;;;;;;11.15;7.47;;;;;;;;;;4968903;28;20520;-69
2022/04/30 11:01:15;;;;;;;7.27;6.07;;;;;;;;;;4984793;28;20026;-60
2022/04/30 11:04:01;;;;;;;;;;;;;;;;;;4975046;28;20045;-71
2022/04/30 11:06:46;;;;;;;;;;;;;;;;;;4971552;28;19913;-71
2022/04/30 11:09:32;;;;;;;;;;;;;;;;;;4974175;28;20437;-71
2022/04/30 11:12:17;;;;;;;;;;;;;;;;;;4991097;28;19914;-74
2022/04/30 11:15:02;;;;;;;;;;;;;;;;;;4976595;28;20443;-73
2022/04/30 11:17:48;;;;;;;;;;;;;;;;;;4981127;28;19917;-72
2022/04/30 11:20:33;;;;;;;;;;;;;;;;;;4979684;28;19914;-60
2022/04/30 11:23:18;;;;;;;;;;;;;;;;;;4985478;28;20324;-69
2022/04/30 11:26:03;;;;;;;;;;;;;;;;;;4974048;28;19957;-70
2022/04/30 11:28:48;;;;;;;;;;;;;;;;;;4970820;28;19914;-70
2022/04/30 11:31:33;;;;;;;;;;;;;;;;;;4980298;28;20238;-69
2022/04/30 11:34:19;;;;;;;;;;;;;;;;;;4976028;28;19969;-70
2022/04/30 11:37:04;;;;;;;;;;;;;;;;;;4971455;28;20000;-69
2022/04/30 11:39:49;;;;;;;;;;;;;;;;;;4971162;28;20121;-62
2022/04/30 11:42:34;;;;;;;;;;;;;;;;;;4988115;28;20469;-74
2022/04/30 11:45:19;;;;;;;;;;;;;;;;;;4974854;28;19921;-70
2022/04/30 11:48:05;;;;;;;;;;;;;;;;;;4987357;28;19924;-71
2022/04/30 11:50:50;;;;;;;;;;;;;;;;;;4969792;28;20396;-73
2022/04/30 11:53:35;;;;;;;;;;;;;;;;;;4970270;28;19976;-71
2022/04/30 11:56:20;;;;;;;;;;;;;;;;;;4973541;28;19921;-65
2022/04/30 11:59:05;;;;;;;;;;;;;;;;;;4970394;28;20373;-65
2022/04/30 12:01:51;;;;;;;;;;;;;;;;;;4975210;28;20001;-64
2022/04/30 12:04:36;;;;;;;;;;;;;;;;;;4974044;28;19914;-64
2022/04/30 12:07:21;;;;;;;;;;;;;;;;;;4978622;28;19913;-64
2022/04/30 12:10:06;;;;;;;;;;;;;;;;;;4978220;28;20428;-63
2022/04/30 12:12:51;;;;;;;;;;;;;;;;;;4978890;28;19909;-64
2022/04/30 12:15:39;;;;;;;;;;;;;;;;;;4973097;28;19951;-64
2022/04/30 12:24:41;;;;;;;;;;;;;;;;;;4965486;28;19914;-60
2022/04/30 12:27:28;;;;;;;;;;;;;;;;;;4973421;28;19984;-60
2022/04/30 12:30:16;;;;;;;;;;;;;;;;;;4975423;28;19921;-60
2022/04/30 12:33:03;;;;;;;;;;;;;;;;;;4972798;28;20400;-60
2022/04/30 12:35:49;;;;;;;;;;;;;;;;;;4970162;28;19949;-75
2022/04/30 12:38:34;;;;;;;;;;;;;;;;;;4978119;28;19968;-64
2022/04/30 12:41:19;;;;;;;;;;;;;;;;;;4975069;28;19964;-65
2022/04/30 12:44:04;;;;;;;;;;;;;;;;;;4972068;28;20275;-66
2022/04/30 12:46:49;;;;;;;;;;;;;;;;;;4970256;28;19914;-66
2022/04/30 12:49:34;;;;;;;;;;;;;;;;;;4972293;28;20293;-67
2022/04/30 12:52:19;;;;;;;;;;;;;;;;;;4974142;28;19964;-67
2022/04/30 12:55:04;;;;;;;;;;;;;;;;;;4972595;28;19922;-62
2022/04/30 12:57:50;;;;;;;;;;;;;;;;;;4969853;28;20247;-61
2022/04/30 13:00:35;;;;;;;;;;;;;;;;;;4974124;28;19937;-64
2022/04/30 13:03:20;;;;;;;;;;;;;;;;;;4973740;28;19920;-61
2022/04/30 13:06:05;;;;;;;;;;;;;;;;;;4969247;28;19938;-64
2022/04/30 13:14:58;;;;;;;;;;;;;;;;;;4971342;28;20328;-63
2022/04/30 13:17:43;;;;;;;;;;;;;;;;;;4973816;28;19921;-62
2022/04/30 13:20:29;;;;;;;;;;;;;;;;;;4983708;28;20392;-66
2022/04/30 13:23:14;;;;;;;;;;;;;;;;;;4972058;28;19922;-66
2022/04/30 13:25:59;;;;;;;;;;;;;;;;;;4987084;28;20006;-65
2022/04/30 13:28:44;;;;;;;;;;;;;;;;;;4973108;28;20384;-67
2022/04/30 13:31:30;;;;;;;;;;;;;;;;;;4978459;28;19918;-64
2022/04/30 13:34:15;;;;;;;;;;;;;;;;;;4972498;28;19926;-65
2022/04/30 13:37:00;;;;;;;;;;;;;;;;;;4977842;28;19918;-62
2022/04/30 13:39:45;;;;;;;;;;;;;;;;;;4959143;28;19918;-62
2022/04/30 13:42:30;;;;;;;;;;;;;;;;;;4949086;28;20008;-62
2022/04/30 13:45:16;;;;;;;;;;;;;;;;;;4973698;28;20012;-61
2022/04/30 13:48:02;;;;;;;;;;;;;;;;;;4973137;28;20387;-60
2022/04/30 13:50:48;;;;;;;;;;;;;;;;;;4973442;28;19914;-65
2022/04/30 13:53:33;;;;;;;;;;;;;;;;;;4979858;28;20016;-67
2022/04/30 13:56:18;;;;;;;;;;;;;;;;;;4978722;28;19980;-68
2022/04/30 13:59:06;;;;;;;;;;;;;;;;;;4971680;28;19969;-67
2022/04/30 14:01:51;;;;;;;;;;;;;;;;;;4981225;28;20334;-67
2022/04/30 14:04:36;;;;;;;;;;;;;;;;;;4969956;28;19941;-66
2022/04/30 14:07:22;;;;;;;;;;;;;;;;;;4987580;28;19914;-69
2022/04/30 14:10:07;;;;;;;;;;;;;;;;;;4967190;28;19914;-70
2022/04/30 14:12:53;;;;;;;;;;;;;;;;;;4961182;28;20408;-71
2022/04/30 14:15:38;;;;;;;;;;;;;;;;;;4972569;28;19925;-69
2022/04/30 14:18:26;;;;;;;;;;;;;;;;;;4983881;28;19914;-70
2022/04/30 14:21:11;;;;;;;;;;;;;;;;;;4981910;28;19925;-72
2022/04/30 14:23:57;;;;;;;;;;;;;;;;;;4972364;28;19973;-71
2022/04/30 14:26:42;;;;;;;;;;;;;;;;;;4971638;28;20250;-63
2022/04/30 14:29:28;;;;;;;;;;;;;;;;;;4972589;28;20044;-61
2022/04/30 14:32:13;;;;;;;;;;;;;;;;;;4986521;28;19924;-60
2022/04/30 14:35:00;;;;;;;;;;;;;;;;;;4971349;28;19941;-61
2022/04/30 14:37:46;;;;;;;;;;;;;;;;;;4976587;28;19953;-61
2022/04/30 14:40:31;;;;;;;;;;;;;;;;;;4974414;28;20313;-62
2022/04/30 14:43:16;;;;;;;;;;;;;;;;;;4965764;28;19915;-61
2022/04/30 14:46:04;;;;;;;;;;;;;;;;;;4969609;28;19914;-72
2022/04/30 14:48:49;;;;;;;;;;;;;;;;;;4972360;28;20381;-71
2022/04/30 14:51:34;;;;;;;;;;;;;;;;;;4981362;28;19949;-74
2022/04/30 14:54:19;;;;;;;;;;;;;;;;;;4981608;28;19953;-72
2022/04/30 14:57:05;;;;;;;;;;;;;;;;;;4971902;28;19949;-74
2022/04/30 14:59:50;;;;;;;;;;;;;;;;;;4975132;28;19921;-71
2022/04/30 15:02:35;;;;;;;;;;;;;;;;;;4972783;28;20365;-70
2022/04/30 15:05:20;;;;;;;;;;;;;;;;;;4978609;28;20524;-74
2022/04/30 15:08:05;;;;;;;;;;;;;;;;;;4971450;28;19950;-73
2022/04/30 15:10:50;;;;;;;;;;;;;;;;;;4965591;28;19919;-73
2022/04/30 15:13:36;;;;;;;;;;;;;;;;;;4963284;28;19966;-74
2022/04/30 15:16:21;;;;;;;;;;;;;;;;;;4978590;28;20396;-73
2022/04/30 15:19:07;;;;;;;;;;;;;;;;;;4975590;28;19922;-70
2022/04/30 15:21:52;;;;;;;;;;;;;;;;;;4990991;28;20379;-66
2022/04/30 15:24:37;;;;;;;;;;;;;;;;;;4971266;28;20388;-65
2022/04/30 15:27:22;;;;;;;;;;;;;;;;;;4971298;28;19961;-64
2022/04/30 15:30:08;;;;;;;;;;;;;;;;;;4964799;28;19916;-64
2022/04/30 15:32:53;;;;;;;;;;;;;;;;;;4954252;28;21472;-66
2022/04/30 15:35:38;;;;;;;;;;;;;;;;;;4966628;28;19967;-63
2022/04/30 15:38:23;;;;;;;;;;;;;;;;;;4971296;28;19967;-70
2022/04/30 15:41:08;;;;;;;;;;;;;;;;;;4983260;28;20272;-61
2022/04/30 15:43:54;;;;;;;;;;;;;;;;;;4974044;28;19914;-60
2022/04/30 15:52:48;;;;;;;;;;;;;;;;;;4969446;28;19914;-63
2022/04/30 15:55:33;;;;;;;;;;;;;;;;;;4969684;28;19922;-71
2022/04/30 15:58:18;;;;;;;;;;;;;;;;;;4973968;28;19914;-70
2022/04/30 16:01:03;;;;;;;;;;;;;;;;;;4962473;28;19914;-72
2022/04/30 16:03:48;;;;;;;;;;;;;;;;;;4981007;28;19918;-70
2022/04/30 16:06:33;;;;;;;;;;;;;;;;;;4977802;28;19953;-71
2022/04/30 16:09:18;;;;;;;;;;;;;;;;;;4986525;28;19914;-71
2022/04/30 16:12:05;;;;;;;;;;;;;;;;;;4980306;28;19913;-72
2022/04/30 16:14:50;;;;;;;;;;;;;;;;;;4975350;28;19921;-64
2022/04/30 16:17:35;;;;;;;;;;;;;;;;;;4970521;28;19914;-72
2022/04/30 16:20:21;;;;;;;;;;;;;;;;;;4970522;28;19937;-72
2022/04/30 16:23:06;;;;;;;;;;;;;;;;;;4982201;28;19914;-74
2022/04/30 16:25:51;;;;;;;;;;;;;;;;;;4969884;28;19914;-75
2022/04/30 16:28:36;;;;;;;;;;;;;;;;;;4986747;28;19952;-73
2022/04/30 16:31:22;;;;;;;;;;;;;;;;;;4961448;28;19914;-72
2022/04/30 16:34:07;;;;;;;;;;;;;;;;;;4953549;28;19919;-75
2022/04/30 16:36:52;;;;;;;;;;;;;;;;;;4970239;28;19914;-63
2022/04/30 16:39:39;;;;;;;;;;;;;;;;;;4976715;28;19922;-66
2022/04/30 16:42:25;;;;;;;;;;;;;;;;;;4976164;28;20009;-64
2022/04/30 16:45:10;;;;;;;;;;;;;;;;;;4970195;28;20005;-64
2022/04/30 16:47:56;;;;;;;;;;;;;;;;;;4975151;28;20269;-65
2022/04/30 16:52:19;;;;;;;;;;;;;;;;;;4989414;28;19913;-67
2022/04/30 16:53:47;;;;;;;;;;;;;;;;;;4985517;28;19917;-60
2022/04/30 16:59:36;;;;;;;;;;;;;;;;;;4976462;28;20250;-63
2022/04/30 17:02:21;;;;;;;;;;;;;;;;;;4970443;28;20293;-60
2022/04/30 17:05:06;;;;;;;;;;;;;;;;;;4970178;28;19914;-61
2022/04/30 17:07:54;;;;;;;;;;;;;;;;;;4969833;28;20376;-60
2022/04/30 17:10:39;;;;;;;;;;;;;;;;;;4969930;28;19920;-72
2022/04/30 17:13:24;;;;;;;;;;;;;;;;;;4971071;28;20061;-66
2022/04/30 17:16:09;;;;;;;;;;;;;;;;;;4964168;28;20278;-66
2022/04/30 17:18:54;;;;;;;;;;;;;;;;;;4973009;28;19925;-67
2022/04/30 17:21:40;;;;;;;;;;;;;;;;;;4989490;28;19913;-65
2022/04/30 17:24:25;;;;;;;;;;;;;;;;;;4985469;28;19913;-65
2022/04/30 17:27:10;;;;;;;;;;;;;;;;;;4989427;28;20017;-65
2022/04/30 17:29:55;;;;;;;;;;;;;;;;;;4976111;28;19918;-77
2022/04/30 17:38:48;;;;;;;;;;;;;;;;;;4985800;28;19914;-72
2022/04/30 17:41:33;;;;;;;;;;;;;;;;;;4972785;28;20285;-72
2022/04/30 17:44:19;;;;;;;;;;;;;;;;;;4972503;28;19968;-73
2022/04/30 17:47:04;;;;;;;;;;;;;;;;;;4983632;28;19914;-61
2022/04/30 17:49:49;;;;;;;;;;;;;;;;;;4974403;28;19922;-70
2022/04/30 17:52:34;;;;;;;;;;;;;;;;;;4992257;28;19922;-71
2022/04/30 17:55:20;;;;;;;;;;;;;;;;;;4978919;28;19953;-70
2022/04/30 17:58:05;;;;;;;;;;;;;;;;;;4975656;28;19914;-72
2022/04/30 18:00:50;;;;;;;;;;;;;;;;;;4979118;28;19969;-70
2022/04/30 18:03:36;;;;;;;;;;;;;;;;;;4989561;28;19914;-72
2022/04/30 18:06:21;;;;;;;;;;;;;;;;;;4971047;28;20357;-62
2022/04/30 18:09:07;;;;;;;;;;;;;;;;;;4972296;28;20009;-79